createdAt,value
2018-04-18T00:01:12.250Z,15.91
2018-04-18T00:03:50.559Z,15.82
2018-04-18T00:06:29.164Z,15.82
2018-04-18T00:09:09.349Z,15.77
2018-04-18T00:11:48.540Z,15.61
2018-04-18T00:14:28.187Z,15.92
2018-04-18T00:17:08.685Z,16.33
2018-04-18T00:19:47.511Z,15.73
2018-04-18T00:22:26.101Z,16.20
2018-04-18T00:25:07.008Z,15.58
2018-04-18T00:27:46.119Z,15.55
2018-04-18T00:30:24.603Z,15.65
2018-04-18T00:33:08.279Z,15.58
2018-04-18T00:35:46.851Z,15.89
2018-04-18T00:38:25.311Z,16.04
2018-04-18T00:41:07.988Z,16.06
2018-04-18T00:43:47.356Z,16.01
2018-04-18T00:46:25.743Z,15.93
2018-04-18T00:49:06.315Z,15.86
2018-04-18T00:51:45.807Z,15.91
2018-04-18T00:54:26.008Z,16.53
2018-04-18T00:57:06.772Z,16.22
2018-04-18T00:59:45.496Z,16.33
2018-04-18T01:02:24.334Z,16.34
2018-04-18T01:05:03.728Z,16.29
2018-04-18T01:07:42.473Z,16.25
2018-04-18T01:10:20.730Z,15.93
2018-04-18T01:13:00.044Z,16.15
2018-04-18T01:15:38.619Z,15.88
2018-04-18T01:18:17.468Z,15.73
2018-04-18T01:20:56.014Z,16.22
2018-04-18T01:23:34.955Z,15.90
2018-04-18T01:26:13.983Z,15.65
2018-04-18T01:29:00.857Z,15.54
2018-04-18T01:31:41.186Z,15.97
2018-04-18T01:34:20.204Z,16.28
2018-04-18T01:36:59.689Z,16.32
2018-04-18T01:39:38.514Z,16.28
2018-04-18T01:42:17.293Z,16.02
2018-04-18T01:44:57.214Z,15.87
2018-04-18T01:47:35.908Z,15.94
2018-04-18T01:50:14.659Z,15.67
2018-04-18T01:52:56.801Z,15.67
2018-04-18T01:55:35.107Z,15.79
2018-04-18T01:58:14.033Z,15.63
2018-04-18T02:00:54.559Z,15.96
2018-04-18T02:03:33.382Z,15.94
2018-04-18T02:06:12.516Z,16.42
2018-04-18T02:08:51.486Z,16.98
2018-04-18T02:11:30.537Z,17.70
2018-04-18T02:14:16.474Z,16.89
2018-04-18T02:16:54.992Z,16.61
2018-04-18T02:19:33.925Z,16.94
2018-04-18T02:22:13.143Z,16.63
2018-04-18T02:24:51.783Z,16.50
2018-04-18T02:27:30.349Z,16.04
2018-04-18T02:30:09.152Z,16.59
2018-04-18T02:32:48.092Z,16.39
2018-04-18T02:35:27.533Z,16.50
2018-04-18T02:38:10.657Z,16.01
2018-04-18T02:40:49.992Z,16.19
2018-04-18T02:43:29.223Z,15.73
2018-04-18T02:46:07.753Z,16.24
2018-04-18T02:48:47.303Z,15.58
2018-04-18T02:51:27.725Z,15.90
2018-04-18T02:54:07.144Z,16.30
2018-04-18T02:56:45.586Z,15.90
2018-04-18T02:59:26.437Z,16.17
2018-04-18T03:02:06.302Z,16.33
2018-04-18T03:04:44.749Z,15.82
2018-04-18T03:07:27.110Z,15.68
2018-04-18T03:10:07.185Z,15.70
2018-04-18T03:12:45.652Z,16.26
2018-04-18T03:15:28.683Z,16.36
2018-04-18T03:18:07.215Z,16.90
2018-04-18T03:20:46.779Z,17.02
2018-04-18T03:23:28.279Z,16.23
2018-04-18T03:26:08.443Z,15.76
2018-04-18T03:28:46.946Z,15.37
2018-04-18T03:31:27.150Z,15.46
2018-04-18T03:34:05.907Z,15.68
2018-04-18T03:36:44.507Z,15.94
2018-04-18T03:39:24.426Z,15.47
2018-04-18T03:42:03.699Z,16.33
2018-04-18T03:44:42.459Z,16.39
2018-04-18T03:47:24.486Z,16.09
2018-04-18T03:50:04.679Z,16.33
2018-04-18T03:52:43.294Z,16.50
2018-04-18T03:55:22.114Z,16.59
2018-04-18T03:58:00.789Z,16.86
2018-04-18T04:00:39.977Z,16.90
2018-04-18T04:03:23.715Z,16.73
2018-04-18T04:06:03.071Z,16.76
2018-04-18T04:08:43.954Z,16.48
2018-04-18T04:11:22.686Z,16.97
2018-04-18T04:14:01.195Z,16.85
2018-04-18T04:17:54.463Z,16.55
2018-04-18T04:23:46.296Z,15.96
2018-04-18T04:26:25.726Z,16.17
2018-04-18T04:29:04.378Z,16.06
2018-04-18T04:31:44.112Z,17.59
2018-04-18T04:34:22.632Z,18.04
2018-04-18T04:37:01.025Z,18.60
2018-04-18T04:39:42.945Z,18.19
2018-04-18T04:42:21.190Z,17.79
2018-04-18T04:45:00.796Z,17.72
2018-04-18T04:47:41.212Z,17.74
2018-04-18T04:50:19.794Z,17.42
2018-04-18T04:52:58.480Z,17.11
2018-04-18T04:55:41.914Z,17.75
2018-04-18T04:58:20.312Z,17.59
2018-04-18T05:00:59.247Z,17.58
2018-04-18T05:03:41.278Z,17.64
2018-04-18T05:06:19.592Z,18.27
2018-04-18T05:10:01.402Z,18.66
2018-04-18T05:12:41.154Z,18.59
2018-04-18T05:15:20.385Z,18.37
2018-04-18T05:18:01.424Z,18.37
2018-04-18T05:20:39.901Z,17.61
2018-04-18T05:23:20.594Z,17.55
2018-04-18T05:26:01.709Z,18.62
2018-04-18T05:28:42.049Z,18.21
2018-04-18T05:31:22.495Z,17.47
2018-04-18T05:34:01.633Z,17.91
2018-04-18T05:36:43.229Z,17.79
2018-04-18T05:39:21.196Z,17.92
2018-04-18T05:42:00.801Z,18.17
2018-04-18T05:44:40.248Z,18.01
2018-04-18T05:47:18.996Z,17.03
2018-04-18T05:49:58.325Z,16.89
2018-04-18T06:05:36.512Z,17.82
2018-04-18T06:08:21.084Z,17.35
2018-04-18T06:10:59.314Z,17.35
2018-04-18T06:13:40.856Z,18.02
2018-04-18T06:16:25.225Z,17.07
2018-04-18T06:19:06.862Z,17.00
2018-04-18T06:21:51.165Z,17.09
2018-04-18T06:24:29.793Z,17.60
2018-04-18T06:27:14.973Z,17.70
2018-04-18T06:29:53.458Z,17.35
2018-04-18T06:32:31.823Z,17.48
2018-04-18T06:35:12.747Z,17.86
2018-04-18T06:37:52.232Z,17.19
2018-04-18T06:40:32.390Z,17.12
2018-04-18T06:43:11.657Z,16.95
2018-04-18T06:45:50.182Z,16.03
2018-04-18T06:48:31.390Z,16.12
2018-04-18T06:51:14.756Z,16.00
2018-04-18T06:53:53.659Z,15.68
2018-04-18T06:56:34.817Z,15.32
2018-04-18T06:59:14.141Z,15.81
2018-04-18T07:01:52.300Z,15.74
2018-04-18T07:04:33.290Z,15.30
2018-04-18T07:07:12.368Z,15.30
2018-04-18T07:09:55.794Z,15.23
2018-04-18T07:12:33.759Z,14.93
2018-04-18T07:15:13.097Z,14.41
2018-04-18T07:17:55.340Z,14.02
2018-04-18T07:20:34.259Z,14.54
2018-04-18T07:23:14.564Z,15.02
2018-04-18T07:25:57.290Z,14.23
2018-04-18T07:28:35.687Z,13.91
2018-04-18T07:31:21.979Z,14.54
2018-04-18T07:34:00.156Z,13.86
2018-04-18T07:36:39.366Z,14.57
2018-04-18T07:39:19.475Z,14.64
2018-04-18T07:41:57.432Z,13.84
2018-04-18T07:44:37.949Z,13.56
2018-04-18T07:47:17.403Z,13.15
2018-04-18T07:49:57.834Z,12.83
2018-04-18T07:52:37.801Z,13.42
2018-04-18T07:55:20.530Z,12.54
2018-04-18T07:58:00.034Z,13.46
2018-04-18T08:00:45.631Z,13.27
2018-04-18T08:03:25.326Z,13.08
2018-04-18T08:06:03.697Z,13.83
2018-04-18T08:08:44.260Z,13.07
2018-04-18T08:11:23.266Z,12.57
2018-04-18T08:14:01.494Z,11.91
2018-04-18T08:16:43.326Z,11.98
2018-04-18T08:19:21.513Z,12.32
2018-04-18T08:22:02.090Z,12.02
2018-04-18T08:24:42.684Z,12.08
2018-04-18T08:27:21.916Z,12.37
2018-04-18T08:30:06.323Z,11.81
2018-04-18T08:32:44.780Z,11.85
2018-04-18T08:35:24.344Z,11.16
2018-04-18T08:38:06.191Z,10.87
2018-04-18T08:40:44.337Z,10.54
2018-04-18T08:43:28.853Z,10.78
2018-04-18T08:46:07.891Z,10.44
2018-04-18T08:48:46.256Z,10.67
2018-04-18T08:51:27.533Z,10.31
2018-04-18T08:54:05.824Z,9.92
2018-04-18T08:56:45.823Z,9.78
2018-04-18T08:59:28.217Z,9.57
2018-04-18T09:02:07.240Z,9.47
2018-04-18T09:04:47.682Z,9.10
2018-04-18T09:07:27.387Z,8.94
2018-04-18T09:10:07.177Z,8.60
2018-04-18T09:12:50.579Z,8.76
2018-04-18T09:15:31.171Z,8.73
2018-04-18T09:18:10.128Z,8.75
2018-04-18T09:20:53.049Z,9.05
2018-04-18T09:23:32.449Z,8.53
2018-04-18T09:26:11.513Z,8.38
2018-04-18T09:28:54.169Z,8.85
2018-04-18T09:31:32.508Z,8.12
2018-04-18T09:34:10.925Z,7.90
2018-04-18T09:36:54.690Z,7.76
2018-04-18T09:39:33.760Z,7.59
2018-04-18T09:42:27.069Z,7.26
2018-04-18T09:45:08.260Z,6.85
2018-04-18T09:47:54.342Z,6.53
2018-04-18T09:50:33.600Z,6.24
2018-04-18T09:53:20.770Z,7.33
2018-04-18T09:56:01.941Z,7.22
2018-04-18T09:58:40.320Z,7.41
2018-04-18T10:01:30.699Z,6.99
2018-04-18T10:04:12.774Z,7.14
2018-04-18T10:06:59.333Z,6.71
2018-04-18T10:09:39.043Z,6.19
2018-04-18T10:12:17.615Z,6.54
2018-04-18T10:14:59.771Z,6.08
2018-04-18T10:17:39.173Z,6.35
2018-04-18T10:20:17.580Z,6.32
2018-04-18T10:22:56.233Z,5.66
2018-04-18T10:25:36.855Z,5.47
2018-04-18T10:28:17.032Z,6.46
2018-04-18T10:31:00.782Z,6.55
2018-04-18T10:33:40.826Z,5.91
2018-04-18T10:36:23.696Z,5.60
2018-04-18T10:39:04.009Z,6.20
2018-04-18T10:41:43.611Z,5.97
2018-04-18T10:44:24.833Z,5.68
2018-04-18T10:47:11.015Z,4.63
2018-04-18T10:49:57.455Z,4.76
2018-04-18T10:52:40.219Z,5.02
2018-04-18T10:55:24.433Z,5.17
2018-04-18T10:58:03.384Z,5.78
2018-04-18T11:00:41.533Z,5.83
2018-04-18T11:03:24.625Z,6.27
2018-04-18T11:06:02.851Z,5.68
2018-04-18T11:08:41.670Z,5.98
2018-04-18T11:13:58.918Z,6.38
2018-04-18T11:16:41.822Z,6.00
2018-04-18T11:22:08.042Z,5.52
2018-04-18T11:24:46.615Z,4.72
2018-04-18T11:27:29.250Z,4.09
2018-04-18T11:30:08.029Z,4.45
2018-04-18T11:32:46.267Z,4.23
2018-04-18T11:35:28.668Z,5.19
2018-04-18T11:38:07.992Z,5.31
2018-04-18T11:40:47.657Z,4.92
2018-04-18T11:43:32.947Z,4.96
2018-04-18T11:46:12.395Z,4.97
2018-04-18T11:48:50.677Z,5.03
2018-04-18T11:51:34.497Z,5.86
2018-04-18T11:54:27.027Z,5.45
2018-04-18T12:00:03.532Z,5.26
2018-04-18T12:02:55.195Z,5.11
2018-04-18T12:05:33.426Z,4.82
2018-04-18T12:08:13.762Z,6.30
2018-04-18T12:11:09.872Z,6.26
2018-04-18T12:13:49.137Z,6.01
2018-04-18T12:16:34.453Z,6.15
2018-04-18T12:22:16.357Z,5.59
2018-04-18T12:24:54.919Z,5.34
2018-04-18T12:27:33.577Z,5.04
2018-04-18T12:30:18.865Z,5.27
2018-04-18T12:32:59.481Z,5.10
2018-04-18T12:35:37.988Z,5.94
2018-04-18T12:38:19.665Z,5.71
2018-04-18T12:40:58.591Z,6.02
2018-04-18T12:43:37.889Z,5.42
2018-04-18T12:46:21.767Z,4.92
2018-04-18T12:49:01.257Z,5.00
2018-04-18T12:51:42.176Z,5.56
2018-04-18T12:54:36.170Z,5.50
2018-04-18T12:57:15.653Z,5.81
2018-04-18T12:59:57.554Z,5.82
2018-04-18T13:02:36.212Z,5.79
2018-04-18T13:08:03.013Z,6.25
2018-04-18T13:10:42.094Z,6.69
2018-04-18T13:16:19.999Z,5.64
2018-04-18T13:19:00.813Z,6.22
2018-04-18T13:21:49.860Z,6.42
2018-04-18T13:24:38.608Z,6.26
2018-04-18T13:27:18.991Z,6.10
2018-04-18T13:29:58.995Z,5.67
2018-04-18T13:32:39.894Z,5.22
2018-04-18T13:35:20.137Z,4.94
2018-04-18T13:38:04.500Z,4.98
2018-04-18T13:43:44.873Z,5.14
2018-04-18T13:46:24.679Z,4.45
2018-04-18T13:49:06.778Z,4.68
2018-04-18T13:51:45.315Z,4.35
2018-04-18T13:54:30.867Z,4.75
2018-04-18T13:57:20.385Z,5.12
2018-04-18T14:00:09.508Z,5.01
2018-04-18T14:06:00.496Z,4.62
2018-04-18T14:08:44.777Z,4.74
2018-04-18T14:11:24.843Z,4.76
2018-04-18T14:14:11.914Z,5.12
2018-04-18T14:16:50.445Z,4.75
2018-04-18T14:19:32.235Z,5.16
2018-04-18T14:22:10.630Z,5.07
2018-04-18T14:24:51.125Z,4.99
2018-04-18T14:30:38.063Z,4.58
2018-04-18T14:33:23.454Z,5.15
2018-04-18T14:36:15.749Z,4.76
2018-04-18T14:39:08.163Z,4.54
2018-04-18T14:41:48.204Z,4.66
2018-04-18T14:44:32.605Z,4.73
2018-04-18T14:47:14.415Z,4.82
2018-04-18T14:49:52.757Z,4.81
2018-04-18T14:52:34.304Z,4.59
2018-04-18T14:55:15.028Z,4.54
2018-04-18T14:57:53.426Z,4.81
2018-04-18T15:00:43.989Z,4.73
2018-04-18T15:03:29.662Z,4.73
2018-04-18T15:06:17.081Z,4.65
2018-04-18T15:08:56.643Z,4.32
2018-04-18T15:11:35.400Z,3.92
2018-04-18T15:14:16.470Z,4.41
2018-04-18T15:16:56.683Z,4.45
2018-04-18T15:19:36.172Z,4.38
2018-04-18T15:22:16.827Z,4.39
2018-04-18T15:24:56.197Z,4.86
2018-04-18T15:27:34.939Z,4.47
2018-04-18T15:30:17.713Z,4.33
2018-04-18T15:32:56.132Z,4.37
2018-04-18T15:35:34.572Z,4.24
2018-04-18T15:38:15.254Z,4.27
2018-04-18T15:40:56.739Z,4.02
2018-04-18T15:43:37.397Z,4.27
2018-04-18T15:46:19.356Z,4.09
2018-04-18T15:48:58.436Z,4.23
2018-04-18T15:51:39.873Z,3.74
2018-04-18T15:54:18.207Z,4.18
2018-04-18T15:57:02.453Z,3.84
2018-04-18T15:59:40.704Z,3.81
2018-04-18T16:02:19.157Z,3.76
2018-04-18T16:05:01.449Z,4.13
2018-04-18T16:07:39.833Z,4.30
2018-04-18T16:10:20.693Z,4.17
2018-04-18T16:13:18.810Z,4.31
2018-04-18T16:16:01.050Z,4.04
2018-04-18T16:18:42.351Z,4.00
2018-04-18T16:21:24.904Z,4.03
2018-04-18T16:24:03.134Z,4.21
2018-04-18T16:26:41.610Z,5.01
2018-04-18T16:29:36.655Z,4.51
2018-04-18T16:32:17.153Z,3.97
2018-04-18T16:34:57.311Z,2.96
2018-04-18T16:37:38.435Z,2.32
2018-04-18T16:40:17.987Z,2.25
2018-04-18T16:42:57.640Z,2.16
2018-04-18T16:45:39.522Z,1.84
2018-04-18T16:48:19.472Z,1.45
2018-04-18T16:51:00.090Z,1.47
2018-04-18T16:53:41.102Z,1.57
2018-04-18T16:56:20.625Z,1.62
2018-04-18T16:59:03.162Z,1.79
2018-04-18T17:01:45.143Z,1.52
2018-04-18T17:04:23.965Z,1.43
2018-04-18T17:07:05.882Z,1.51
2018-04-18T17:09:43.866Z,1.65
2018-04-18T17:12:23.355Z,1.99
2018-04-18T17:15:05.126Z,2.31
2018-04-18T17:17:45.556Z,2.29
2018-04-18T17:20:25.919Z,2.45
2018-04-18T17:23:06.069Z,2.51
2018-04-18T17:25:46.143Z,2.86
2018-04-18T17:28:29.099Z,3.48
2018-04-18T17:31:07.899Z,3.91
2018-04-18T17:33:48.584Z,4.46
2018-04-18T17:36:28.173Z,5.28
2018-04-18T17:39:08.062Z,5.33
2018-04-18T17:41:48.384Z,5.44
2018-04-18T17:44:27.805Z,5.81
2018-04-18T17:47:09.948Z,5.86
2018-04-18T17:49:50.163Z,5.97
2018-04-18T17:52:30.760Z,6.15
2018-04-18T17:55:10.864Z,6.26
2018-04-18T17:57:52.989Z,6.30
2018-04-18T18:00:34.042Z,6.25
2018-04-18T18:03:12.987Z,6.52
2018-04-18T18:05:53.282Z,6.55
2018-04-18T18:08:49.000Z,7.31
2018-04-18T18:11:35.520Z,8.80
2018-04-18T18:14:19.357Z,9.17
2018-04-18T18:16:58.629Z,8.81
2018-04-18T18:19:37.473Z,8.49
2018-04-18T18:22:19.083Z,8.54
2018-04-18T18:24:57.707Z,8.30
2018-04-18T18:27:37.240Z,8.31
2018-04-18T18:30:19.270Z,8.70
2018-04-18T18:33:04.170Z,9.26
2018-04-18T18:35:42.517Z,9.13
2018-04-18T18:38:22.553Z,9.60
2018-04-18T18:41:02.202Z,9.93
2018-04-18T18:43:42.056Z,10.01
2018-04-18T18:46:23.252Z,9.93
2018-04-18T18:49:02.755Z,10.52
2018-04-18T18:51:44.059Z,10.78
2018-04-18T18:54:24.601Z,10.69
2018-04-18T18:57:09.244Z,10.96
2018-04-18T18:59:54.947Z,11.28
2018-04-18T19:02:42.293Z,11.20
2018-04-18T19:05:23.914Z,11.40
2018-04-18T19:08:06.908Z,11.63
2018-04-18T19:10:48.690Z,11.41
2018-04-18T19:13:29.076Z,11.31
2018-04-18T19:16:19.103Z,11.60
2018-04-18T19:19:02.772Z,11.88
2018-04-18T19:21:43.226Z,11.84
2018-04-18T19:24:23.081Z,11.97
2018-04-18T19:27:05.180Z,11.94
2018-04-18T19:29:45.848Z,12.30
2018-04-18T19:32:27.811Z,12.18
2018-04-18T19:35:08.902Z,12.16
2018-04-18T19:37:49.386Z,12.93
2018-04-18T19:40:29.043Z,13.25
2018-04-18T19:43:11.120Z,12.60
2018-04-18T19:45:50.126Z,13.19
2018-04-18T19:48:30.228Z,13.18
2018-04-18T19:51:11.752Z,13.10
2018-04-18T19:53:50.720Z,12.98
2018-04-18T19:56:31.391Z,13.35
2018-04-18T19:59:13.977Z,13.36
2018-04-18T20:01:54.504Z,13.36
2018-04-18T20:04:33.424Z,13.36
2018-04-18T20:07:12.058Z,13.46
2018-04-18T20:09:56.018Z,13.75
2018-04-18T20:12:37.298Z,14.48
2018-04-18T20:15:24.551Z,14.30
2018-04-18T20:18:06.087Z,13.97
2018-04-18T20:20:46.625Z,13.91
2018-04-18T20:23:30.130Z,13.81
2018-04-18T20:26:09.558Z,14.14
2018-04-18T20:28:52.051Z,13.61
2018-04-18T20:31:30.768Z,13.97
2018-04-18T20:34:17.435Z,13.91
2018-04-18T20:36:55.997Z,14.84
2018-04-18T20:39:38.693Z,14.84
2018-04-18T20:42:18.015Z,14.58
2018-04-18T20:44:56.526Z,14.36
2018-04-18T20:47:39.558Z,14.39
2018-04-18T20:50:17.737Z,14.27
2018-04-18T20:52:56.985Z,14.51
2018-04-18T20:55:36.855Z,14.26
2018-04-18T20:58:16.204Z,14.84
2018-04-18T21:00:56.057Z,14.98
2018-04-18T21:03:36.963Z,14.48
2018-04-18T21:06:15.905Z,14.62
2018-04-18T21:08:55.575Z,14.57
2018-04-18T21:11:38.850Z,14.62
2018-04-18T21:14:17.521Z,14.79
2018-04-18T21:16:56.088Z,15.11
2018-04-18T21:19:37.865Z,14.87
2018-04-18T21:22:16.373Z,14.87
2018-04-18T21:24:58.654Z,15.35
2018-04-18T21:27:37.383Z,15.17
2018-04-18T21:30:17.556Z,14.90
2018-04-18T21:32:57.497Z,14.83
2018-04-18T21:35:35.880Z,15.27
2018-04-18T21:38:19.668Z,15.11
2018-04-18T21:41:03.414Z,15.15
2018-04-18T21:43:41.959Z,15.00
2018-04-18T21:46:22.516Z,14.92
2018-04-18T21:49:01.654Z,14.77
2018-04-18T21:51:40.171Z,14.94
2018-04-18T21:54:19.135Z,15.12
2018-04-18T21:57:02.005Z,15.30
2018-04-18T21:59:41.223Z,15.38
2018-04-18T22:06:05.563Z,15.39
2018-04-18T22:09:11.497Z,15.35
2018-04-18T22:11:50.088Z,15.04
2018-04-18T22:14:45.907Z,15.23
2018-04-18T22:17:30.595Z,15.44
2018-04-18T22:20:09.614Z,15.46
2018-04-18T22:22:48.671Z,15.15
2018-04-18T22:25:27.062Z,14.73
2018-04-18T22:28:06.182Z,15.14
2018-04-18T22:30:47.001Z,15.20
2018-04-18T22:33:26.985Z,15.29
2018-04-18T22:36:06.277Z,15.34
2018-04-18T22:38:48.306Z,15.49
2018-04-18T22:41:27.725Z,15.30
2018-04-18T22:44:07.175Z,15.29
2018-04-18T22:46:45.903Z,15.59
2018-04-18T22:49:24.520Z,15.63
2018-04-18T22:52:04.092Z,15.52
2018-04-18T22:54:45.483Z,15.85
2018-04-18T22:57:24.222Z,15.59
2018-04-18T23:00:03.213Z,15.44
2018-04-18T23:02:42.164Z,15.42
2018-04-18T23:05:20.760Z,15.91
2018-04-18T23:08:00.474Z,15.81
2018-04-18T23:10:39.335Z,15.30
2018-04-18T23:13:22.390Z,15.58
2018-04-18T23:16:07.957Z,15.47
2018-04-18T23:18:46.534Z,15.63
2018-04-18T23:21:25.647Z,15.65
2018-04-18T23:24:04.779Z,16.01
2018-04-18T23:26:44.276Z,15.89
2018-04-18T23:29:23.050Z,15.67
2018-04-18T23:32:01.812Z,15.62
2018-04-18T23:34:40.335Z,15.99
2018-04-18T23:37:18.983Z,15.82
2018-04-18T23:39:57.402Z,15.69
2018-04-18T23:42:36.264Z,15.61
2018-04-18T23:45:15.736Z,15.88
2018-04-18T23:47:56.152Z,15.88
2018-04-18T23:50:34.662Z,15.70
2018-04-18T23:53:13.854Z,16.14
2018-04-18T23:55:56.109Z,16.20
2018-04-18T23:58:36.174Z,15.96
